sensor_id;sensor_type;location;lat;lon;timestamp;pressure;altitude;pressure_sealevel;temperature;humidity
54918;BME280;40818;50.562;7.454;2023-03-20T00:04:31;97936.53;;;8.59;100.00
54918;BME280;40818;50.562;7.454;2023-03-20T00:14:34;97933.38;;;8.53;100.00
54918;BME280;40818;50.562;7.454;2023-03-20T00:24:40;97946.53;;;8.49;100.00
54918;BME280;40818;50.562;7.454;2023-03-20T00:34:44;97954.16;;;8.34;100.00
54918;BME280;40818;50.562;7.454;2023-03-20T00:44:51;97968.00;;;8.00;100.00
54918;BME280;40818;50.562;7.454;2023-03-20T00:54:59;97976.19;;;7.75;100.00
54918;BME280;40818;50.562;7.454;2023-03-20T01:05:05;97988.81;;;7.63;100.00
54918;BME280;40818;50.562;7.454;2023-03-20T01:15:17;97995.09;;;7.58;100.00
54918;BME280;40818;50.562;7.454;2023-03-20T01:25:23;98002.22;;;7.52;100.00
54918;BME280;40818;50.562;7.454;2023-03-20T01:35:27;98000.97;;;7.25;100.00
54918;BME280;40818;50.562;7.454;2023-03-20T01:45:43;98016.94;;;7.15;100.00
54918;BME280;40818;50.562;7.454;2023-03-20T01:55:53;98015.97;;;6.99;100.00
54918;BME280;40818;50.562;7.454;2023-03-20T02:06:05;98010.16;;;6.94;100.00
54918;BME280;40818;50.562;7.454;2023-03-20T02:16:48;97999.66;;;6.79;100.00
54918;BME280;40818;50.562;7.454;2023-03-20T02:27:07;97979.91;;;6.78;100.00
54918;BME280;40818;50.562;7.454;2023-03-20T02:37:38;97974.69;;;6.80;100.00
54918;BME280;40818;50.562;7.454;2023-03-20T02:47:50;97975.31;;;6.66;100.00
54918;BME280;40818;50.562;7.454;2023-03-20T02:58:04;97988.34;;;6.63;100.00
54918;BME280;40818;50.562;7.454;2023-03-20T03:08:13;97985.06;;;6.59;100.00
54918;BME280;40818;50.562;7.454;2023-03-20T03:18:24;97985.63;;;6.66;100.00
54918;BME280;40818;50.562;7.454;2023-03-20T03:28:32;97974.81;;;6.58;100.00
54918;BME280;40818;50.562;7.454;2023-03-20T03:38:44;97997.75;;;6.45;100.00
54918;BME280;40818;50.562;7.454;2023-03-20T03:48:54;98014.13;;;6.44;100.00
54918;BME280;40818;50.562;7.454;2023-03-20T03:59:04;98017.59;;;6.43;100.00
54918;BME280;40818;50.562;7.454;2023-03-20T04:09:09;98029.66;;;6.42;100.00
54918;BME280;40818;50.562;7.454;2023-03-20T04:19:15;98006.25;;;6.28;100.00
54918;BME280;40818;50.562;7.454;2023-03-20T04:29:20;98007.44;;;6.19;100.00
54918;BME280;40818;50.562;7.454;2023-03-20T04:39:52;98015.97;;;6.21;100.00
54918;BME280;40818;50.562;7.454;2023-03-20T04:49:56;98016.72;;;6.23;100.00
54918;BME280;40818;50.562;7.454;2023-03-20T05:00:03;98008.25;;;6.21;100.00
54918;BME280;40818;50.562;7.454;2023-03-20T05:10:08;98019.06;;;6.29;100.00
54918;BME280;40818;50.562;7.454;2023-03-20T05:20:43;98005.06;;;6.35;100.00
54918;BME280;40818;50.562;7.454;2023-03-20T05:31:06;98007.63;;;6.35;100.00
54918;BME280;40818;50.562;7.454;2023-03-20T05:41:28;98005.44;;;6.26;100.00
54918;BME280;40818;50.562;7.454;2023-03-20T05:51:38;97995.56;;;6.17;100.00
54918;BME280;40818;50.562;7.454;2023-03-20T06:01:52;97993.75;;;5.98;100.00
54918;BME280;40818;50.562;7.454;2023-03-20T06:11:59;97993.63;;;6.01;100.00
54918;BME280;40818;50.562;7.454;2023-03-20T06:22:05;98007.28;;;6.24;100.00
54918;BME280;40818;50.562;7.454;2023-03-20T06:32:09;98024.59;;;6.41;100.00
54918;BME280;40818;50.562;7.454;2023-03-20T06:42:17;98016.88;;;6.60;100.00
54918;BME280;40818;50.562;7.454;2023-03-20T06:52:23;98020.56;;;6.73;100.00
54918;BME280;40818;50.562;7.454;2023-03-20T07:02:49;98014.09;;;6.83;100.00
54918;BME280;40818;50.562;7.454;2023-03-20T07:12:53;98022.03;;;6.98;100.00
54918;BME280;40818;50.562;7.454;2023-03-20T07:23:00;98031.91;;;7.26;100.00
54918;BME280;40818;50.562;7.454;2023-03-20T07:33:07;98032.34;;;7.54;100.00
54918;BME280;40818;50.562;7.454;2023-03-20T07:43:13;98044.34;;;7.55;100.00
54918;BME280;40818;50.562;7.454;2023-03-20T07:53:45;98055.47;;;7.74;100.00
54918;BME280;40818;50.562;7.454;2023-03-20T08:03:51;98054.63;;;7.91;100.00
54918;BME280;40818;50.562;7.454;2023-03-20T08:13:55;98071.59;;;8.49;100.00
54918;BME280;40818;50.562;7.454;2023-03-20T08:24:01;98087.47;;;8.59;100.00
54918;BME280;40818;50.562;7.454;2023-03-20T08:34:04;98086.91;;;8.70;100.00
54918;BME280;40818;50.562;7.454;2023-03-20T08:44:11;98095.88;;;8.80;100.00
54918;BME280;40818;50.562;7.454;2023-03-20T08:54:14;98090.59;;;8.82;100.00
54918;BME280;40818;50.562;7.454;2023-03-20T09:04:21;98093.31;;;8.63;100.00
54918;BME280;40818;50.562;7.454;2023-03-20T09:14:26;98109.50;;;8.50;100.00
54918;BME280;40818;50.562;7.454;2023-03-20T09:24:35;98104.44;;;8.65;100.00
54918;BME280;40818;50.562;7.454;2023-03-20T09:34:38;98104.34;;;8.66;100.00
54918;BME280;40818;50.562;7.454;2023-03-20T09:44:52;98118.16;;;9.16;100.00
54918;BME280;40818;50.562;7.454;2023-03-20T09:55:01;98124.16;;;9.65;98.04
54918;BME280;40818;50.562;7.454;2023-03-20T10:05:18;98123.81;;;10.17;100.00
54918;BME280;40818;50.562;7.454;2023-03-20T10:15:34;98108.44;;;10.45;95.33
54918;BME280;40818;50.562;7.454;2023-03-20T10:25:44;98095.38;;;10.61;90.99
54918;BME280;40818;50.562;7.454;2023-03-20T10:36:00;98104.78;;;10.33;83.26
54918;BME280;40818;50.562;7.454;2023-03-20T10:46:14;98103.72;;;10.51;80.74
54918;BME280;40818;50.562;7.454;2023-03-20T10:56:26;98095.66;;;10.25;75.21
54918;BME280;40818;50.562;7.454;2023-03-20T11:06:39;98090.50;;;9.95;74.33
54918;BME280;40818;50.562;7.454;2023-03-20T11:16:47;98085.16;;;10.13;77.54
54918;BME280;40818;50.562;7.454;2023-03-20T11:27:04;98081.56;;;10.30;78.53
54918;BME280;40818;50.562;7.454;2023-03-20T11:37:21;98073.97;;;10.12;70.17
54918;BME280;40818;50.562;7.454;2023-03-20T11:47:31;98074.97;;;9.79;73.22
54918;BME280;40818;50.562;7.454;2023-03-20T11:57:37;98072.34;;;9.33;71.09
54918;BME280;40818;50.562;7.454;2023-03-20T12:07:45;98059.97;;;9.38;72.90
54918;BME280;40818;50.562;7.454;2023-03-20T12:17:54;98043.09;;;9.31;71.24
54918;BME280;40818;50.562;7.454;2023-03-20T12:28:06;98034.81;;;9.40;75.17
54918;BME280;40818;50.562;7.454;2023-03-20T12:38:22;98031.50;;;9.22;78.24
54918;BME280;40818;50.562;7.454;2023-03-20T12:48:42;98033.25;;;8.90;77.11
54918;BME280;40818;50.562;7.454;2023-03-20T12:58:52;98019.41;;;8.57;77.18
54918;BME280;40818;50.562;7.454;2023-03-20T13:09:28;98017.69;;;8.58;73.79
54918;BME280;40818;50.562;7.454;2023-03-20T13:19:39;98010.66;;;8.60;73.22
54918;BME280;40818;50.562;7.454;2023-03-20T13:29:51;97995.00;;;8.79;73.81
54918;BME280;40818;50.562;7.454;2023-03-20T13:40:03;97987.81;;;9.00;75.86
54918;BME280;40818;50.562;7.454;2023-03-20T13:50:22;97996.22;;;9.35;75.95
54918;BME280;40818;50.562;7.454;2023-03-20T14:00:32;97985.41;;;9.43;75.78
54918;BME280;40818;50.562;7.454;2023-03-20T14:10:40;97983.00;;;9.40;73.09
54918;BME280;40818;50.562;7.454;2023-03-20T14:20:53;97977.44;;;9.46;75.82
54918;BME280;40818;50.562;7.454;2023-03-20T14:31:20;97977.22;;;9.35;74.88
54918;BME280;40818;50.562;7.454;2023-03-20T14:41:28;97977.13;;;9.06;75.60
54918;BME280;40818;50.562;7.454;2023-03-20T14:51:39;97987.38;;;9.23;77.56
54918;BME280;40818;50.562;7.454;2023-03-20T15:01:45;97983.72;;;9.58;78.17
54918;BME280;40818;50.562;7.454;2023-03-20T15:11:53;97977.84;;;9.54;76.07
54918;BME280;40818;50.562;7.454;2023-03-20T15:22:14;97966.97;;;9.64;76.73
54918;BME280;40818;50.562;7.454;2023-03-20T15:32:21;97960.25;;;9.45;74.65
54918;BME280;40818;50.562;7.454;2023-03-20T15:42:25;97961.56;;;9.52;76.72
54918;BME280;40818;50.562;7.454;2023-03-20T15:52:33;97950.44;;;9.50;78.40
54918;BME280;40818;50.562;7.454;2023-03-20T16:02:40;97946.31;;;9.32;76.71
54918;BME280;40818;50.562;7.454;2023-03-20T16:12:49;97944.59;;;9.16;78.03
54918;BME280;40818;50.562;7.454;2023-03-20T16:22:58;97931.47;;;9.19;78.20
54918;BME280;40818;50.562;7.454;2023-03-20T16:33:10;97937.75;;;9.15;77.83
54918;BME280;40818;50.562;7.454;2023-03-20T16:43:18;97937.34;;;9.07;78.58
54918;BME280;40818;50.562;7.454;2023-03-20T16:53:28;97930.88;;;8.84;76.85
54918;BME280;40818;50.562;7.454;2023-03-20T17:03:35;97930.19;;;8.80;79.50
54918;BME280;40818;50.562;7.454;2023-03-20T17:13:42;97926.28;;;8.73;80.34
54918;BME280;40818;50.562;7.454;2023-03-20T17:23:45;97920.78;;;8.63;80.79
54918;BME280;40818;50.562;7.454;2023-03-20T17:33:52;97941.31;;;8.50;81.00
54918;BME280;40818;50.562;7.454;2023-03-20T17:43:55;97929.00;;;8.38;82.02
54918;BME280;40818;50.562;7.454;2023-03-20T17:54:03;97947.50;;;8.30;81.62
54918;BME280;40818;50.562;7.454;2023-03-20T18:04:06;97950.53;;;8.21;82.48
54918;BME280;40818;50.562;7.454;2023-03-20T18:14:13;97951.13;;;8.10;82.81
54918;BME280;40818;50.562;7.454;2023-03-20T18:24:18;97958.44;;;8.02;83.25
54918;BME280;40818;50.562;7.454;2023-03-20T18:34:25;97954.66;;;7.92;84.02
54918;BME280;40818;50.562;7.454;2023-03-20T18:44:28;97957.72;;;7.82;84.94
54918;BME280;40818;50.562;7.454;2023-03-20T18:54:34;97957.84;;;7.79;86.46
54918;BME280;40818;50.562;7.454;2023-03-20T19:04:38;97958.31;;;7.70;87.70
54918;BME280;40818;50.562;7.454;2023-03-20T19:14:44;97950.66;;;7.68;88.87
54918;BME280;40818;50.562;7.454;2023-03-20T19:24:47;97936.97;;;7.66;89.27
54918;BME280;40818;50.562;7.454;2023-03-20T19:34:54;97948.28;;;7.64;90.66
54918;BME280;40818;50.562;7.454;2023-03-20T19:44:57;97940.44;;;7.65;91.66
54918;BME280;40818;50.562;7.454;2023-03-20T19:55:04;97938.19;;;7.59;92.11
54918;BME280;40818;50.562;7.454;2023-03-20T20:05:16;97934.09;;;7.55;92.70
54918;BME280;40818;50.562;7.454;2023-03-20T20:15:23;97928.63;;;7.44;93.98
54918;BME280;40818;50.562;7.454;2023-03-20T20:25:27;97932.03;;;7.44;94.32
54918;BME280;40818;50.562;7.454;2023-03-20T20:35:33;97937.06;;;7.47;93.77
54918;BME280;40818;50.562;7.454;2023-03-20T20:45:36;97935.22;;;7.49;93.72
54918;BME280;40818;50.562;7.454;2023-03-20T20:55:42;97931.19;;;7.44;95.27
54918;BME280;40818;50.562;7.454;2023-03-20T21:05:47;97938.72;;;7.48;94.35
54918;BME280;40818;50.562;7.454;2023-03-20T21:15:58;97931.34;;;7.41;95.29
54918;BME280;40818;50.562;7.454;2023-03-20T21:26:02;97935.28;;;7.30;96.68
54918;BME280;40818;50.562;7.454;2023-03-20T21:36:09;97945.22;;;7.21;98.40
54918;BME280;40818;50.562;7.454;2023-03-20T21:46:13;97949.84;;;7.14;100.00
54918;BME280;40818;50.562;7.454;2023-03-20T21:56:19;97934.06;;;7.20;99.23
54918;BME280;40818;50.562;7.454;2023-03-20T22:06:22;97927.31;;;7.17;99.58
54918;BME280;40818;50.562;7.454;2023-03-20T22:16:29;97928.91;;;7.20;98.52
54918;BME280;40818;50.562;7.454;2023-03-20T22:26:32;97929.91;;;7.17;98.75
54918;BME280;40818;50.562;7.454;2023-03-20T22:36:38;97926.84;;;7.09;99.40
54918;BME280;40818;50.562;7.454;2023-03-20T22:46:43;97931.34;;;7.06;100.00
54918;BME280;40818;50.562;7.454;2023-03-20T22:56:49;97924.41;;;7.06;100.00
54918;BME280;40818;50.562;7.454;2023-03-20T23:06:52;97922.00;;;7.03;100.00
54918;BME280;40818;50.562;7.454;2023-03-20T23:16:59;97915.69;;;7.09;100.00
54918;BME280;40818;50.562;7.454;2023-03-20T23:27:02;97911.66;;;7.03;100.00
54918;BME280;40818;50.562;7.454;2023-03-20T23:37:08;97899.13;;;6.95;100.00
54918;BME280;40818;50.562;7.454;2023-03-20T23:47:12;97895.38;;;6.83;100.00
54918;BME280;40818;50.562;7.454;2023-03-20T23:57:18;97885.78;;;6.68;100.00
